Sweetser, IN (46987)

9:44 PM EDT on August 29, 2014 (GMT -0400)
Mississinewa Lake | Change Station
CLOSE
Current Station
Personal Weather Station
Location: LaFontaine, IN
Elevation: 807 ft
Nearby Weather Stations

Elev 807 ft 40.66 °N, 85.79 °W | Updated 34 seconds ago

Partly Cloudy
Partly Cloudy
77.0 °F
Feels Like 79 °F
N
1.0
Wind Variable Wind from SSE
Gusts 3.0 mph

Today
High -- | Low -- °F
--% Chance of Precip.
Yesterday
High -- | Low -- °F
Precip. -- in
7:07 AM 8:19 PM
Waxing Crescent, 18% visible
Pressure 29.99 in
Visibility 10.0 miles
Clouds Scattered Clouds 4000 ft
Heat Index 79 °F
Dew Point 71 °F
Humidity 82%
Rainfall 0.00 in
Snow Depth Not available.
UV 0 out of 12
Pollen 9.70 out of 12
Air Quality Not available.
Flu Activity Not available.
METAR KMZZ 300135Z AUTO 13007KT 10SM SCT040 23/20 A2999 RMK AO2 T02330198

More Conditions Fewer Conditions

Pressure 29.99 in
Visibility 10.0 miles
Clouds Scattered Clouds 4000 ft
Heat Index 79 °F
Dew Point 71 °F
Humidity 82%
Rainfall 0.00 in
Snow Depth Not available.
UV 0 out of 12
Pollen 9.70 out of 12
Air Quality Not available.
Flu Activity Not available.
METAR KMZZ 300135Z AUTO 13007KT 10SM SCT040 23/20 A2999 RMK AO2 T02330198

More Conditions Fewer Conditions

10-Day Weather Forecast

Almanac

Astronomy

Aug. 29, 2014 Rise Set
Actual Time 7:07 AM EDT 8:19 PM EDT
Civil Twilight 6:39 AM EDT 8:48 PM EDT
Nautical Twilight 6:05 AM EDT 9:21 PM EDT
Astronomical Twilight 5:29 AM EDT 9:56 PM EDT
Moon 10:57 AM EDT (8/29) 10:15 PM EDT (8/29)
Length of Visible Light 14h 08m
Length of Day
13h 12m
Tomorrow will be 2m 32s shorter.
Waxing Crescent, 18% of the Moon is Illuminated
Today
Waxing Crescent
Sep 2
First Quarter
Sep 8
Full
Sep 15
Last Quarter
Sep 24
New

Today's Extremes

State Highs State Lows

Community

WunderPhotos

Upload Photos

1,748,403 photos uploaded!

Nearby

Snow Depth

Station Depth Elevation
No new snow has been reported.

Earthquake Activity

City Distance Mag. Time & Date
No recent earthquake activity has been reported nearby.
Minimum magnitude displayed is 2.5.

Coastal Water Temperatures

Place Temperature
No Stations Reporting

Nearby Weather Stations